sensor_id;sensor_type;location;lat;lon;timestamp;pressure;altitude;pressure_sealevel;temperature;humidity
55032;BME280;40928;51.076;7.950;2024-03-08T00:00:56;97165.97;;;0.17;83.83
55032;BME280;40928;51.076;7.950;2024-03-08T00:03:22;97162.84;;;0.13;84.26
55032;BME280;40928;51.076;7.950;2024-03-08T00:05:48;97164.97;;;0.10;84.26
55032;BME280;40928;51.076;7.950;2024-03-08T00:08:14;97161.06;;;0.06;85.00
55032;BME280;40928;51.076;7.950;2024-03-08T00:10:40;97152.72;;;-0.06;85.88
55032;BME280;40928;51.076;7.950;2024-03-08T00:13:06;97161.91;;;-0.10;85.60
55032;BME280;40928;51.076;7.950;2024-03-08T00:15:32;97162.91;;;-0.11;85.48
55032;BME280;40928;51.076;7.950;2024-03-08T00:17:58;97157.66;;;-0.11;86.15
55032;BME280;40928;51.076;7.950;2024-03-08T00:20:23;97163.22;;;-0.14;86.13
55032;BME280;40928;51.076;7.950;2024-03-08T00:22:49;97157.97;;;-0.14;85.94
55032;BME280;40928;51.076;7.950;2024-03-08T00:25:24;97157.34;;;-0.17;87.14
55032;BME280;40928;51.076;7.950;2024-03-08T00:27:50;97155.22;;;-0.21;86.77
55032;BME280;40928;51.076;7.950;2024-03-08T00:30:15;97157.19;;;-0.23;86.40
55032;BME280;40928;51.076;7.950;2024-03-08T00:32:41;97150.66;;;-0.27;86.48
55032;BME280;40928;51.076;7.950;2024-03-08T00:35:07;97149.50;;;-0.33;87.19
55032;BME280;40928;51.076;7.950;2024-03-08T00:37:33;97152.97;;;-0.41;87.19
55032;BME280;40928;51.076;7.950;2024-03-08T00:40:02;97143.59;;;-0.43;87.52
55032;BME280;40928;51.076;7.950;2024-03-08T00:42:28;97139.34;;;-0.44;87.66
55032;BME280;40928;51.076;7.950;2024-03-08T00:44:54;97142.63;;;-0.51;87.97
55032;BME280;40928;51.076;7.950;2024-03-08T00:47:20;97136.41;;;-0.50;88.37
55032;BME280;40928;51.076;7.950;2024-03-08T00:49:46;97135.25;;;-0.47;88.52
55032;BME280;40928;51.076;7.950;2024-03-08T00:52:11;97137.88;;;-0.47;88.67
55032;BME280;40928;51.076;7.950;2024-03-08T00:54:37;97135.41;;;-0.49;88.43
55032;BME280;40928;51.076;7.950;2024-03-08T00:57:03;97130.00;;;-0.47;88.82
55032;BME280;40928;51.076;7.950;2024-03-08T00:59:30;97132.47;;;-0.54;88.70
55032;BME280;40928;51.076;7.950;2024-03-08T01:01:59;97135.75;;;-0.52;89.25
55032;BME280;40928;51.076;7.950;2024-03-08T01:04:28;97132.81;;;-0.49;88.72
55032;BME280;40928;51.076;7.950;2024-03-08T01:06:57;97131.81;;;-0.48;89.17
55032;BME280;40928;51.076;7.950;2024-03-08T01:09:24;97133.94;;;-0.51;89.49
55032;BME280;40928;51.076;7.950;2024-03-08T01:11:50;97125.25;;;-0.52;89.66
55032;BME280;40928;51.076;7.950;2024-03-08T01:14:16;97126.56;;;-0.56;89.43
55032;BME280;40928;51.076;7.950;2024-03-08T01:16:42;97109.88;;;-0.63;89.51
55032;BME280;40928;51.076;7.950;2024-03-08T01:19:10;97113.78;;;-0.67;90.03
55032;BME280;40928;51.076;7.950;2024-03-08T01:21:36;97106.25;;;-0.70;90.22
55032;BME280;40928;51.076;7.950;2024-03-08T01:24:02;97105.91;;;-0.75;90.56
55032;BME280;40928;51.076;7.950;2024-03-08T01:26:28;97105.25;;;-0.78;90.38
55032;BME280;40928;51.076;7.950;2024-03-08T01:28:54;97101.34;;;-0.82;90.97
55032;BME280;40928;51.076;7.950;2024-03-08T01:31:20;97091.84;;;-0.83;90.54
55032;BME280;40928;51.076;7.950;2024-03-08T01:33:46;97093.16;;;-0.87;90.88
55032;BME280;40928;51.076;7.950;2024-03-08T01:36:12;97087.72;;;-0.85;91.47
55032;BME280;40928;51.076;7.950;2024-03-08T01:38:42;97086.75;;;-0.84;91.12
55032;BME280;40928;51.076;7.950;2024-03-08T01:41:08;97077.75;;;-0.82;91.29
55032;BME280;40928;51.076;7.950;2024-03-08T01:43:34;97078.72;;;-0.83;91.38
55032;BME280;40928;51.076;7.950;2024-03-08T01:46:00;97075.13;;;-0.90;91.20
55032;BME280;40928;51.076;7.950;2024-03-08T01:48:30;97074.47;;;-0.92;91.57
55032;BME280;40928;51.076;7.950;2024-03-08T01:50:57;97068.72;;;-0.96;91.81
55032;BME280;40928;51.076;7.950;2024-03-08T01:53:24;97068.59;;;-0.94;91.59
55032;BME280;40928;51.076;7.950;2024-03-08T01:55:55;97064.00;;;-1.00;91.93
55032;BME280;40928;51.076;7.950;2024-03-08T01:58:22;97058.09;;;-1.02;91.86
55032;BME280;40928;51.076;7.950;2024-03-08T02:00:48;97056.78;;;-1.07;92.35
55032;BME280;40928;51.076;7.950;2024-03-08T02:03:17;97048.91;;;-1.07;92.53
55032;BME280;40928;51.076;7.950;2024-03-08T02:05:43;97049.75;;;-1.06;92.57
55032;BME280;40928;51.076;7.950;2024-03-08T02:08:09;97049.41;;;-1.11;92.67
55032;BME280;40928;51.076;7.950;2024-03-08T02:10:44;97039.91;;;-1.12;92.60
55032;BME280;40928;51.076;7.950;2024-03-08T02:13:11;97047.28;;;-1.16;92.76
55032;BME280;40928;51.076;7.950;2024-03-08T02:15:53;97043.03;;;-1.17;92.80
55032;BME280;40928;51.076;7.950;2024-03-08T02:18:19;97036.81;;;-1.16;93.02
55032;BME280;40928;51.076;7.950;2024-03-08T02:21:06;97031.88;;;-1.19;92.74
55032;BME280;40928;51.076;7.950;2024-03-08T02:23:33;97028.78;;;-1.23;93.19
55032;BME280;40928;51.076;7.950;2024-03-08T02:26:00;97034.03;;;-1.23;93.46
55032;BME280;40928;51.076;7.950;2024-03-08T02:28:26;97027.78;;;-1.30;93.62
55032;BME280;40928;51.076;7.950;2024-03-08T02:30:52;97023.38;;;-1.29;93.49
55032;BME280;40928;51.076;7.950;2024-03-08T02:33:24;97028.28;;;-1.26;93.42
55032;BME280;40928;51.076;7.950;2024-03-08T02:35:50;97013.03;;;-1.31;93.53
55032;BME280;40928;51.076;7.950;2024-03-08T02:38:20;97018.47;;;-1.32;93.78
55032;BME280;40928;51.076;7.950;2024-03-08T02:40:48;97021.06;;;-1.32;93.38
55032;BME280;40928;51.076;7.950;2024-03-08T02:43:16;97012.41;;;-1.41;93.79
55032;BME280;40928;51.076;7.950;2024-03-08T02:45:43;97011.41;;;-1.40;94.13
55032;BME280;40928;51.076;7.950;2024-03-08T02:48:12;97008.78;;;-1.40;93.78
55032;BME280;40928;51.076;7.950;2024-03-08T02:50:40;97010.94;;;-1.44;93.90
55032;BME280;40928;51.076;7.950;2024-03-08T02:53:08;97014.84;;;-1.48;94.36
55032;BME280;40928;51.076;7.950;2024-03-08T02:55:35;97007.31;;;-1.51;94.24
55032;BME280;40928;51.076;7.950;2024-03-08T02:58:02;97013.84;;;-1.55;94.82
55032;BME280;40928;51.076;7.950;2024-03-08T03:00:29;97013.84;;;-1.55;94.82
55032;BME280;40928;51.076;7.950;2024-03-08T03:02:56;97005.19;;;-1.56;94.43
55032;BME280;40928;51.076;7.950;2024-03-08T03:05:25;97010.41;;;-1.56;94.95
55032;BME280;40928;51.076;7.950;2024-03-08T03:07:51;97001.75;;;-1.64;95.63
55032;BME280;40928;51.076;7.950;2024-03-08T03:10:18;96998.13;;;-1.63;95.17
55032;BME280;40928;51.076;7.950;2024-03-08T03:12:45;96986.34;;;-1.67;95.03
55032;BME280;40928;51.076;7.950;2024-03-08T03:15:12;96993.06;;;-1.65;95.14
55032;BME280;40928;51.076;7.950;2024-03-08T03:17:39;96983.41;;;-1.64;95.33
55032;BME280;40928;51.076;7.950;2024-03-08T03:20:08;96979.47;;;-1.69;95.98
55032;BME280;40928;51.076;7.950;2024-03-08T03:22:38;96980.78;;;-1.73;95.40
55032;BME280;40928;51.076;7.950;2024-03-08T03:25:05;96981.59;;;-1.72;96.15
55032;BME280;40928;51.076;7.950;2024-03-08T03:27:35;96979.47;;;-1.69;96.24
55032;BME280;40928;51.076;7.950;2024-03-08T03:30:01;96973.25;;;-1.67;95.95
55032;BME280;40928;51.076;7.950;2024-03-08T03:32:50;96971.28;;;-1.65;96.22
55032;BME280;40928;51.076;7.950;2024-03-08T03:35:17;96972.59;;;-1.70;96.21
55032;BME280;40928;51.076;7.950;2024-03-08T03:37:43;96974.22;;;-1.69;96.66
55032;BME280;40928;51.076;7.950;2024-03-08T03:40:30;96970.50;;;-1.66;95.62
55032;BME280;40928;51.076;7.950;2024-03-08T03:42:56;96965.22;;;-1.74;95.72
55032;BME280;40928;51.076;7.950;2024-03-08T03:45:23;96969.84;;;-1.68;96.22
55032;BME280;40928;51.076;7.950;2024-03-08T03:47:49;96964.91;;;-1.63;95.86
55032;BME280;40928;51.076;7.950;2024-03-08T03:50:15;96963.94;;;-1.62;95.81
55032;BME280;40928;51.076;7.950;2024-03-08T03:52:41;96960.19;;;-1.59;95.36
55032;BME280;40928;51.076;7.950;2024-03-08T03:55:08;96961.00;;;-1.67;95.73
55032;BME280;40928;51.076;7.950;2024-03-08T03:57:34;96955.25;;;-1.71;95.37
55032;BME280;40928;51.076;7.950;2024-03-08T03:59:59;96959.19;;;-1.66;95.71
55032;BME280;40928;51.076;7.950;2024-03-08T04:02:25;96951.00;;;-1.63;95.77
55032;BME280;40928;51.076;7.950;2024-03-08T04:04:52;96951.81;;;-1.63;96.07
55032;BME280;40928;51.076;7.950;2024-03-08T04:07:20;96953.31;;;-1.60;96.04
55032;BME280;40928;51.076;7.950;2024-03-08T04:09:46;96949.19;;;-1.63;95.54
55032;BME280;40928;51.076;7.950;2024-03-08T04:12:12;96940.84;;;-1.66;95.71
55032;BME280;40928;51.076;7.950;2024-03-08T04:14:42;96943.00;;;-1.70;96.14
55032;BME280;40928;51.076;7.950;2024-03-08T04:17:08;96938.41;;;-1.68;96.13
55032;BME280;40928;51.076;7.950;2024-03-08T04:19:38;96936.28;;;-1.64;95.74
55032;BME280;40928;51.076;7.950;2024-03-08T04:22:06;96939.56;;;-1.62;95.78
55032;BME280;40928;51.076;7.950;2024-03-08T04:24:33;96931.88;;;-1.64;95.81
55032;BME280;40928;51.076;7.950;2024-03-08T04:26:59;96931.69;;;-1.71;95.98
55032;BME280;40928;51.076;7.950;2024-03-08T04:29:25;96931.69;;;-1.71;96.02
55032;BME280;40928;51.076;7.950;2024-03-08T04:31:52;96931.38;;;-1.67;95.70
55032;BME280;40928;51.076;7.950;2024-03-08T04:34:21;96931.69;;;-1.62;95.78
55032;BME280;40928;51.076;7.950;2024-03-08T04:36:48;96928.09;;;-1.61;95.81
55032;BME280;40928;51.076;7.950;2024-03-08T04:39:14;96923.00;;;-1.63;95.45
55032;BME280;40928;51.076;7.950;2024-03-08T04:41:42;96926.63;;;-1.64;95.88
55032;BME280;40928;51.076;7.950;2024-03-08T04:44:17;96926.78;;;-1.65;95.14
55032;BME280;40928;51.076;7.950;2024-03-08T04:46:43;96925.47;;;-1.61;96.38
55032;BME280;40928;51.076;7.950;2024-03-08T04:49:09;96921.06;;;-1.61;95.90
55032;BME280;40928;51.076;7.950;2024-03-08T04:51:37;96916.00;;;-1.62;96.09
55032;BME280;40928;51.076;7.950;2024-03-08T04:54:03;96923.66;;;-1.61;96.53
55032;BME280;40928;51.076;7.950;2024-03-08T04:56:30;96916.66;;;-1.60;95.88
55032;BME280;40928;51.076;7.950;2024-03-08T04:58:57;96917.78;;;-1.63;96.01
55032;BME280;40928;51.076;7.950;2024-03-08T05:01:23;96908.13;;;-1.62;97.40
55032;BME280;40928;51.076;7.950;2024-03-08T05:03:48;96914.19;;;-1.62;96.64
55032;BME280;40928;51.076;7.950;2024-03-08T05:06:16;96915.66;;;-1.59;97.09
55032;BME280;40928;51.076;7.950;2024-03-08T05:08:42;96904.03;;;-1.57;97.10
55032;BME280;40928;51.076;7.950;2024-03-08T05:11:08;96905.19;;;-1.59;96.75
55032;BME280;40928;51.076;7.950;2024-03-08T05:13:35;96907.97;;;-1.61;96.79
55032;BME280;40928;51.076;7.950;2024-03-08T05:16:00;96904.34;;;-1.60;96.46
55032;BME280;40928;51.076;7.950;2024-03-08T05:18:26;96906.31;;;-1.62;96.23
55032;BME280;40928;51.076;7.950;2024-03-08T05:20:57;96903.22;;;-1.65;96.28
55032;BME280;40928;51.076;7.950;2024-03-08T05:23:23;96902.56;;;-1.67;96.47
55032;BME280;40928;51.076;7.950;2024-03-08T05:25:49;96901.28;;;-1.72;96.17
55032;BME280;40928;51.076;7.950;2024-03-08T05:28:16;96893.75;;;-1.75;96.27
55032;BME280;40928;51.076;7.950;2024-03-08T05:30:41;96897.50;;;-1.77;96.49
55032;BME280;40928;51.076;7.950;2024-03-08T05:33:07;96888.81;;;-1.78;96.61
55032;BME280;40928;51.076;7.950;2024-03-08T05:35:36;96898.47;;;-1.78;96.71
55032;BME280;40928;51.076;7.950;2024-03-08T05:38:02;96899.13;;;-1.76;96.85
55032;BME280;40928;51.076;7.950;2024-03-08T05:40:28;96903.88;;;-1.80;96.48
55032;BME280;40928;51.076;7.950;2024-03-08T05:42:58;96898.97;;;-1.83;97.61
55032;BME280;40928;51.076;7.950;2024-03-08T05:45:25;96894.38;;;-1.81;97.64
55032;BME280;40928;51.076;7.950;2024-03-08T05:47:51;96889.63;;;-1.77;97.30
55032;BME280;40928;51.076;7.950;2024-03-08T05:50:19;96890.78;;;-1.80;97.64
55032;BME280;40928;51.076;7.950;2024-03-08T05:52:45;96892.44;;;-1.79;97.56
55032;BME280;40928;51.076;7.950;2024-03-08T05:55:13;96889.81;;;-1.79;96.61
55032;BME280;40928;51.076;7.950;2024-03-08T05:57:41;96895.38;;;-1.82;97.12
55032;BME280;40928;51.076;7.950;2024-03-08T06:00:08;96884.91;;;-1.82;96.58
55032;BME280;40928;51.076;7.950;2024-03-08T06:02:40;96890.44;;;-1.85;97.15
55032;BME280;40928;51.076;7.950;2024-03-08T06:05:10;96881.97;;;-1.87;97.15
55032;BME280;40928;51.076;7.950;2024-03-08T06:07:38;96882.28;;;-1.90;97.13
55032;BME280;40928;51.076;7.950;2024-03-08T06:10:08;96883.28;;;-1.91;97.43
55032;BME280;40928;51.076;7.950;2024-03-08T06:12:36;96883.28;;;-1.91;97.36
55032;BME280;40928;51.076;7.950;2024-03-08T06:15:09;96878.03;;;-1.91;97.17
55032;BME280;40928;51.076;7.950;2024-03-08T06:17:36;96874.41;;;-1.99;97.33
55032;BME280;40928;51.076;7.950;2024-03-08T06:20:03;96877.03;;;-1.99;97.53
55032;BME280;40928;51.076;7.950;2024-03-08T06:22:37;96879.81;;;-2.00;96.92
55032;BME280;40928;51.076;7.950;2024-03-08T06:25:12;96879.97;;;-2.02;97.46
55032;BME280;40928;51.076;7.950;2024-03-08T06:27:42;96880.63;;;-2.00;97.19
55032;BME280;40928;51.076;7.950;2024-03-08T06:30:11;96879.34;;;-2.04;97.61
55032;BME280;40928;51.076;7.950;2024-03-08T06:32:37;96868.03;;;-2.04;97.54
55032;BME280;40928;51.076;7.950;2024-03-08T06:35:04;96866.41;;;-2.05;98.04
55032;BME280;40928;51.076;7.950;2024-03-08T06:37:33;96866.88;;;-2.02;97.65
55032;BME280;40928;51.076;7.950;2024-03-08T06:40:00;96867.91;;;-2.03;97.30
55032;BME280;40928;51.076;7.950;2024-03-08T06:42:29;96864.94;;;-2.00;97.73
55032;BME280;40928;51.076;7.950;2024-03-08T06:44:59;96866.25;;;-1.95;98.22
55032;BME280;40928;51.076;7.950;2024-03-08T06:47:30;96867.09;;;-1.95;98.45
55032;BME280;40928;51.076;7.950;2024-03-08T06:49:56;96871.66;;;-1.89;98.11
55032;BME280;40928;51.076;7.950;2024-03-08T06:52:22;96861.34;;;-1.82;98.49
55032;BME280;40928;51.076;7.950;2024-03-08T06:54:48;96863.97;;;-1.74;98.79
55032;BME280;40928;51.076;7.950;2024-03-08T06:57:14;96865.41;;;-1.63;98.85
55032;BME280;40928;51.076;7.950;2024-03-08T06:59:42;96861.47;;;-1.59;98.92
55032;BME280;40928;51.076;7.950;2024-03-08T07:02:08;96866.06;;;-1.52;98.89
55032;BME280;40928;51.076;7.950;2024-03-08T07:04:35;96870.28;;;-1.43;99.45
55032;BME280;40928;51.076;7.950;2024-03-08T07:07:06;96870.97;;;-1.33;99.61
55032;BME280;40928;51.076;7.950;2024-03-08T07:09:38;96863.88;;;-1.24;99.35
55032;BME280;40928;51.076;7.950;2024-03-08T07:12:07;96862.88;;;-1.15;99.09
55032;BME280;40928;51.076;7.950;2024-03-08T07:14:33;96856.47;;;-1.04;99.38
55032;BME280;40928;51.076;7.950;2024-03-08T07:16:59;96860.00;;;-0.88;99.10
55032;BME280;40928;51.076;7.950;2024-03-08T07:19:25;96857.66;;;-0.75;99.44
55032;BME280;40928;51.076;7.950;2024-03-08T07:21:50;96864.78;;;-0.60;98.66
55032;BME280;40928;51.076;7.950;2024-03-08T07:24:16;96854.72;;;-0.49;98.51
55032;BME280;40928;51.076;7.950;2024-03-08T07:26:42;96862.50;;;-0.32;97.97
55032;BME280;40928;51.076;7.950;2024-03-08T07:29:09;96867.16;;;-0.19;97.18
55032;BME280;40928;51.076;7.950;2024-03-08T07:31:34;96858.53;;;-0.05;96.78
55032;BME280;40928;51.076;7.950;2024-03-08T07:34:16;96858.75;;;0.09;96.09
55032;BME280;40928;51.076;7.950;2024-03-08T07:36:42;96852.91;;;0.22;95.44
55032;BME280;40928;51.076;7.950;2024-03-08T07:39:08;96851.97;;;0.38;95.32
55032;BME280;40928;51.076;7.950;2024-03-08T07:41:40;96855.44;;;0.53;94.06
55032;BME280;40928;51.076;7.950;2024-03-08T07:44:07;96844.13;;;0.68;93.57
55032;BME280;40928;51.076;7.950;2024-03-08T07:46:32;96849.47;;;0.89;92.71
55032;BME280;40928;51.076;7.950;2024-03-08T07:49:00;96841.59;;;1.04;91.87
55032;BME280;40928;51.076;7.950;2024-03-08T07:51:26;96841.75;;;1.18;90.63
55032;BME280;40928;51.076;7.950;2024-03-08T07:53:52;96832.38;;;1.30;90.23
55032;BME280;40928;51.076;7.950;2024-03-08T07:56:17;96826.22;;;1.38;89.57
55032;BME280;40928;51.076;7.950;2024-03-08T07:58:44;96835.81;;;1.46;88.88
55032;BME280;40928;51.076;7.950;2024-03-08T08:01:17;96821.16;;;1.58;89.59
55032;BME280;40928;51.076;7.950;2024-03-08T08:03:43;96814.91;;;1.81;88.82
55032;BME280;40928;51.076;7.950;2024-03-08T08:06:09;96820.34;;;2.01;87.91
55032;BME280;40928;51.076;7.950;2024-03-08T08:08:35;96815.09;;;2.23;86.58
55032;BME280;40928;51.076;7.950;2024-03-08T08:11:02;96815.75;;;2.32;86.21
55032;BME280;40928;51.076;7.950;2024-03-08T08:13:30;96811.66;;;2.57;84.82
55032;BME280;40928;51.076;7.950;2024-03-08T08:15:58;96806.09;;;2.74;83.67
55032;BME280;40928;51.076;7.950;2024-03-08T08:18:24;96808.03;;;2.94;83.10
55032;BME280;40928;51.076;7.950;2024-03-08T08:20:51;96802.00;;;3.13;82.31
55032;BME280;40928;51.076;7.950;2024-03-08T08:23:20;96791.56;;;3.33;81.03
55032;BME280;40928;51.076;7.950;2024-03-08T08:25:46;96797.47;;;3.42;77.73
55032;BME280;40928;51.076;7.950;2024-03-08T08:28:16;96802.19;;;3.67;77.82
55032;BME280;40928;51.076;7.950;2024-03-08T08:30:46;96794.28;;;3.80;76.24
55032;BME280;40928;51.076;7.950;2024-03-08T08:33:11;96796.31;;;4.05;75.32
55032;BME280;40928;51.076;7.950;2024-03-08T08:35:38;96794.91;;;4.16;74.28
55032;BME280;40928;51.076;7.950;2024-03-08T08:38:04;96791.25;;;4.24;72.75
55032;BME280;40928;51.076;7.950;2024-03-08T08:40:30;96794.91;;;4.30;73.23
55032;BME280;40928;51.076;7.950;2024-03-08T08:42:58;96793.88;;;4.37;71.21
55032;BME280;40928;51.076;7.950;2024-03-08T08:45:25;96797.38;;;4.38;71.92
55032;BME280;40928;51.076;7.950;2024-03-08T08:47:52;96789.63;;;4.50;71.99
55032;BME280;40928;51.076;7.950;2024-03-08T08:50:18;96787.34;;;4.73;72.03
55032;BME280;40928;51.076;7.950;2024-03-08T08:52:49;96784.25;;;4.90;70.31
55032;BME280;40928;51.076;7.950;2024-03-08T08:55:15;96793.97;;;5.03;68.70
55032;BME280;40928;51.076;7.950;2024-03-08T08:57:41;96784.78;;;5.12;68.27
55032;BME280;40928;51.076;7.950;2024-03-08T09:00:07;96775.09;;;5.31;67.24
55032;BME280;40928;51.076;7.950;2024-03-08T09:02:34;96780.78;;;5.42;66.98
55032;BME280;40928;51.076;7.950;2024-03-08T09:05:00;96787.09;;;5.41;66.08
55032;BME280;40928;51.076;7.950;2024-03-08T09:07:29;96768.53;;;5.47;66.06
55032;BME280;40928;51.076;7.950;2024-03-08T09:09:55;96765.34;;;5.71;66.40
55032;BME280;40928;51.076;7.950;2024-03-08T09:12:24;96776.22;;;5.88;64.86
55032;BME280;40928;51.076;7.950;2024-03-08T09:14:50;96763.94;;;5.93;64.71
55032;BME280;40928;51.076;7.950;2024-03-08T09:17:16;96763.59;;;6.15;63.67
55032;BME280;40928;51.076;7.950;2024-03-08T09:19:49;96757.69;;;6.38;63.82
55032;BME280;40928;51.076;7.950;2024-03-08T09:22:15;96752.94;;;6.66;63.04
55032;BME280;40928;51.076;7.950;2024-03-08T09:24:41;96769.09;;;6.83;60.23
55032;BME280;40928;51.076;7.950;2024-03-08T09:27:08;96747.34;;;6.93;60.32
55032;BME280;40928;51.076;7.950;2024-03-08T09:29:35;96757.72;;;7.13;58.86
55032;BME280;40928;51.076;7.950;2024-03-08T09:32:01;96744.47;;;7.43;58.08
55032;BME280;40928;51.076;7.950;2024-03-08T09:34:27;96761.00;;;7.45;57.63
55032;BME280;40928;51.076;7.950;2024-03-08T09:36:53;96744.22;;;7.45;57.16
55032;BME280;40928;51.076;7.950;2024-03-08T09:39:19;96749.59;;;7.57;56.25
55032;BME280;40928;51.076;7.950;2024-03-08T09:41:47;96746.31;;;7.85;56.53
55032;BME280;40928;51.076;7.950;2024-03-08T09:44:16;96738.63;;;8.07;54.66
55032;BME280;40928;51.076;7.950;2024-03-08T09:46:42;96741.75;;;8.28;53.74
55032;BME280;40928;51.076;7.950;2024-03-08T09:49:08;96737.13;;;8.47;53.35
55032;BME280;40928;51.076;7.950;2024-03-08T09:51:36;96737.81;;;8.78;52.04
55032;BME280;40928;51.076;7.950;2024-03-08T09:54:06;96726.69;;;8.81;50.70
55032;BME280;40928;51.076;7.950;2024-03-08T09:56:35;96721.50;;;9.44;50.95
55032;BME280;40928;51.076;7.950;2024-03-08T09:59:02;96724.97;;;9.74;49.03
55032;BME280;40928;51.076;7.950;2024-03-08T10:01:33;96707.41;;;10.12;47.92
55032;BME280;40928;51.076;7.950;2024-03-08T10:03:59;96711.44;;;10.66;46.50
55032;BME280;40928;51.076;7.950;2024-03-08T10:06:25;96712.63;;;10.98;45.16
55032;BME280;40928;51.076;7.950;2024-03-08T10:08:51;96710.66;;;11.37;44.46
55032;BME280;40928;51.076;7.950;2024-03-08T10:11:20;96701.13;;;12.07;43.79
55032;BME280;40928;51.076;7.950;2024-03-08T10:13:47;96703.44;;;12.30;42.24
55032;BME280;40928;51.076;7.950;2024-03-08T10:16:13;96693.28;;;12.86;41.99
55032;BME280;40928;51.076;7.950;2024-03-08T10:18:39;96694.63;;;13.62;41.18
55032;BME280;40928;51.076;7.950;2024-03-08T10:21:08;96691.13;;;14.24;39.39
55032;BME280;40928;51.076;7.950;2024-03-08T10:23:36;96691.91;;;14.55;37.00
55032;BME280;40928;51.076;7.950;2024-03-08T10:26:12;96684.72;;;15.11;36.71
55032;BME280;40928;51.076;7.950;2024-03-08T10:28:45;96688.13;;;15.27;36.27
55032;BME280;40928;51.076;7.950;2024-03-08T10:31:11;96695.16;;;15.23;34.24
55032;BME280;40928;51.076;7.950;2024-03-08T10:33:37;96693.81;;;15.20;34.33
55032;BME280;40928;51.076;7.950;2024-03-08T10:36:07;96697.22;;;14.81;34.36
55032;BME280;40928;51.076;7.950;2024-03-08T10:38:36;96698.31;;;14.75;35.06
55032;BME280;40928;51.076;7.950;2024-03-08T10:41:03;96684.88;;;14.75;34.38
55032;BME280;40928;51.076;7.950;2024-03-08T10:43:37;96671.34;;;15.01;33.90
55032;BME280;40928;51.076;7.950;2024-03-08T10:48:55;96672.06;;;15.17;33.77
55032;BME280;40928;51.076;7.950;2024-03-08T10:51:25;96668.84;;;15.15;32.70
55032;BME280;40928;51.076;7.950;2024-03-08T10:53:57;96674.97;;;15.71;33.16
55032;BME280;40928;51.076;7.950;2024-03-08T10:56:23;96672.59;;;16.04;32.54
55032;BME280;40928;51.076;7.950;2024-03-08T10:58:49;96673.34;;;16.63;31.04
55032;BME280;40928;51.076;7.950;2024-03-08T11:01:15;96689.56;;;16.82;30.52
55032;BME280;40928;51.076;7.950;2024-03-08T11:06:15;96663.47;;;16.53;30.73
55032;BME280;40928;51.076;7.950;2024-03-08T11:08:41;96657.16;;;17.12;30.17
55032;BME280;40928;51.076;7.950;2024-03-08T11:11:26;96651.41;;;17.57;29.13
55032;BME280;40928;51.076;7.950;2024-03-08T11:13:55;96653.28;;;17.18;29.23
55032;BME280;40928;51.076;7.950;2024-03-08T11:18:53;96640.69;;;17.85;29.42
55032;BME280;40928;51.076;7.950;2024-03-08T11:21:19;96629.81;;;18.37;29.02
55032;BME280;40928;51.076;7.950;2024-03-08T11:24:05;96623.91;;;19.05;27.92
55032;BME280;40928;51.076;7.950;2024-03-08T11:26:33;96621.41;;;18.80;28.08
55032;BME280;40928;51.076;7.950;2024-03-08T11:32:08;96606.06;;;19.40;27.27
55032;BME280;40928;51.076;7.950;2024-03-08T11:34:42;96604.69;;;19.29;27.35
55032;BME280;40928;51.076;7.950;2024-03-08T11:37:16;96596.59;;;18.64;28.59
55032;BME280;40928;51.076;7.950;2024-03-08T11:39:54;96595.28;;;19.26;27.98
55032;BME280;40928;51.076;7.950;2024-03-08T11:42:25;96598.75;;;18.90;27.59
55032;BME280;40928;51.076;7.950;2024-03-08T11:44:54;96595.38;;;18.15;28.36
55032;BME280;40928;51.076;7.950;2024-03-08T11:47:20;96598.16;;;18.93;27.89
55032;BME280;40928;51.076;7.950;2024-03-08T11:49:49;96591.97;;;18.65;27.92
55032;BME280;40928;51.076;7.950;2024-03-08T11:52:16;96596.59;;;18.64;28.18
55032;BME280;40928;51.076;7.950;2024-03-08T11:54:47;96587.00;;;19.45;27.16
55032;BME280;40928;51.076;7.950;2024-03-08T11:57:18;96598.75;;;19.04;27.07
55032;BME280;40928;51.076;7.950;2024-03-08T11:59:54;96601.38;;;18.95;27.43
55032;BME280;40928;51.076;7.950;2024-03-08T12:02:24;96591.75;;;19.03;27.31
55032;BME280;40928;51.076;7.950;2024-03-08T12:04:57;96588.13;;;19.08;26.93
55032;BME280;40928;51.076;7.950;2024-03-08T12:07:23;96574.63;;;19.30;27.05
55032;BME280;40928;51.076;7.950;2024-03-08T12:10:20;96581.19;;;20.06;26.54
55032;BME280;40928;51.076;7.950;2024-03-08T12:12:49;96581.00;;;20.03;26.05
55032;BME280;40928;51.076;7.950;2024-03-08T12:15:20;96576.66;;;20.74;25.70
55032;BME280;40928;51.076;7.950;2024-03-08T12:17:48;96578.16;;;21.41;25.26
55032;BME280;40928;51.076;7.950;2024-03-08T12:20:21;96589.81;;;21.68;24.11
55032;BME280;40928;51.076;7.950;2024-03-08T12:22:48;96575.41;;;20.89;24.97
55032;BME280;40928;51.076;7.950;2024-03-08T12:25:14;96556.94;;;20.42;25.63
55032;BME280;40928;51.076;7.950;2024-03-08T12:27:42;96551.81;;;21.24;25.16
55032;BME280;40928;51.076;7.950;2024-03-08T12:30:21;96541.78;;;20.41;25.68
55032;BME280;40928;51.076;7.950;2024-03-08T12:32:56;96552.09;;;21.58;24.99
55032;BME280;40928;51.076;7.950;2024-03-08T12:35:28;96546.28;;;21.95;23.96
55032;BME280;40928;51.076;7.950;2024-03-08T12:37:59;96537.16;;;21.99;23.77
55032;BME280;40928;51.076;7.950;2024-03-08T12:40:34;96536.06;;;22.30;23.56
55032;BME280;40928;51.076;7.950;2024-03-08T12:43:01;96531.03;;;22.50;23.34
55032;BME280;40928;51.076;7.950;2024-03-08T12:45:28;96522.97;;;21.85;23.83
55032;BME280;40928;51.076;7.950;2024-03-08T12:47:54;96512.84;;;20.85;24.62
55032;BME280;40928;51.076;7.950;2024-03-08T12:50:21;96512.53;;;20.78;24.67
55032;BME280;40928;51.076;7.950;2024-03-08T12:52:48;96513.09;;;21.54;23.95
55032;BME280;40928;51.076;7.950;2024-03-08T12:55:18;96506.88;;;22.18;23.47
55032;BME280;40928;51.076;7.950;2024-03-08T12:57:44;96512.91;;;22.24;23.59
55032;BME280;40928;51.076;7.950;2024-03-08T13:00:11;96506.59;;;22.02;24.02
55032;BME280;40928;51.076;7.950;2024-03-08T13:02:47;96507.22;;;21.34;24.13
55032;BME280;40928;51.076;7.950;2024-03-08T13:05:15;96500.88;;;20.77;24.70
55032;BME280;40928;51.076;7.950;2024-03-08T13:07:41;96494.91;;;21.54;24.37
55032;BME280;40928;51.076;7.950;2024-03-08T13:10:14;96484.63;;;21.78;24.61
55032;BME280;40928;51.076;7.950;2024-03-08T13:12:44;96492.13;;;21.81;23.92
55032;BME280;40928;51.076;7.950;2024-03-08T13:15:10;96492.38;;;22.05;23.77
55032;BME280;40928;51.076;7.950;2024-03-08T13:17:41;96476.50;;;21.78;23.89